Time;durP1;ratioP1;P1;durP2;ratioP2;P2;SDS_P1;SDS_P2;PMS_P1;PMS_P2;Temp;Humidity;BMP_temperature;BMP_pressure;BME280_temperature;BME280_humidity;BME280_pressure;Samples;Min_cycle;Max_cycle;Signal;HPM_P1;HPM_P2
2024/01/23 00:02:02;;;;;;;70.22;50.10;;;28.00;99.90;;;;;;5037799;28;20040;-67
2024/01/23 00:04:29;;;;;;;67.43;46.72;;;28.00;99.90;;;;;;5035015;28;20107;-66
2024/01/23 00:06:55;;;;;;;67.32;45.35;;;28.00;99.90;;;;;;5035046;28;20037;-67
2024/01/23 00:09:22;;;;;;;60.10;42.65;;;28.00;99.90;;;;;;5034941;28;20026;-69
2024/01/23 00:11:49;;;;;;;61.58;41.60;;;28.00;99.90;;;;;;5034948;28;20414;-66
2024/01/23 00:14:16;;;;;;;63.53;40.08;;;27.90;99.90;;;;;;5034911;28;20029;-66
2024/01/23 00:16:42;;;;;;;59.38;42.50;;;28.00;99.90;;;;;;5034967;28;20021;-66
2024/01/23 00:19:09;;;;;;;63.75;42.92;;;28.00;99.90;;;;;;5034716;28;20056;-66
2024/01/23 00:21:35;;;;;;;53.63;37.08;;;28.10;99.90;;;;;;5034561;28;20029;-67
2024/01/23 00:24:02;;;;;;;54.25;41.38;;;28.10;99.90;;;;;;5035742;28;20064;-67
2024/01/23 00:26:28;;;;;;;84.63;56.72;;;28.10;99.90;;;;;;5051067;28;20044;-67
2024/01/23 00:28:55;;;;;;;72.95;48.22;;;28.10;99.90;;;;;;5044386;28;20021;-67
2024/01/23 00:31:21;;;;;;;58.72;43.50;;;28.00;99.90;;;;;;5054573;28;20025;-66
2024/01/23 00:33:48;;;;;;;61.92;44.20;;;28.10;99.90;;;;;;5042371;28;20022;-67
2024/01/23 00:36:14;;;;;;;56.08;39.08;;;28.20;99.90;;;;;;5034304;28;20168;-66
2024/01/23 00:38:41;;;;;;;59.13;39.63;;;28.20;99.90;;;;;;5034549;28;20018;-66
2024/01/23 00:41:07;;;;;;;50.58;35.25;;;28.20;99.90;;;;;;5040924;28;20047;-67
2024/01/23 00:43:34;;;;;;;53.20;39.08;;;28.20;99.90;;;;;;5054144;28;20529;-66
2024/01/23 00:46:00;;;;;;;50.55;37.03;;;28.30;99.90;;;;;;5054134;28;20052;-67
2024/01/23 00:48:27;;;;;;;48.22;34.50;;;28.30;99.90;;;;;;5053969;28;20025;-67
2024/01/23 00:50:53;;;;;;;50.88;34.33;;;28.30;99.90;;;;;;5047892;28;20108;-66
2024/01/23 00:53:20;;;;;;;48.55;36.53;;;28.30;99.90;;;;;;5034150;28;20497;-67
2024/01/23 00:55:47;;;;;;;51.20;39.00;;;28.40;99.90;;;;;;5034438;28;20109;-67
2024/01/23 00:58:15;;;;;;;52.33;40.13;;;28.40;99.90;;;;;;5033939;28;20039;-67
2024/01/23 01:00:44;;;;;;;52.35;37.25;;;28.40;99.90;;;;;;5033987;28;20109;-67
2024/01/23 01:03:11;;;;;;;60.03;43.15;;;28.50;99.90;;;;;;5033883;28;20052;-67
2024/01/23 01:05:38;;;;;;;65.75;47.58;;;28.50;99.90;;;;;;5033743;28;20424;-67
2024/01/23 01:08:05;;;;;;;59.55;41.03;;;28.60;99.90;;;;;;5033805;28;20071;-67
2024/01/23 01:10:32;;;;;;;62.42;44.53;;;28.70;99.90;;;;;;5033882;28;20029;-67
2024/01/23 01:12:58;;;;;;;72.97;50.13;;;28.70;99.90;;;;;;5033705;28;20087;-67
2024/01/23 01:15:25;;;;;;;97.80;70.57;;;28.70;99.90;;;;;;5033916;28;20459;-67
2024/01/23 01:17:51;;;;;;;82.35;54.88;;;28.80;99.90;;;;;;5033788;28;20151;-67
2024/01/23 01:20:18;;;;;;;68.15;49.95;;;28.90;99.90;;;;;;5033588;28;20394;-66
2024/01/23 01:22:44;;;;;;;88.72;57.60;;;29.00;99.90;;;;;;5033566;28;20049;-67
2024/01/23 01:25:11;;;;;;;72.32;49.65;;;29.00;99.90;;;;;;5033764;28;20045;-67
2024/01/23 01:27:37;;;;;;;137.95;93.72;;;29.00;99.90;;;;;;5033492;28;20474;-67
2024/01/23 01:30:05;;;;;;;134.02;94.85;;;29.10;99.90;;;;;;5033380;28;20021;-67
2024/01/23 01:32:31;;;;;;;106.80;76.50;;;29.10;99.90;;;;;;5033472;28;20025;-67
2024/01/23 01:34:58;;;;;;;63.03;43.88;;;29.20;99.90;;;;;;5033608;28;20024;-67
2024/01/23 01:37:25;;;;;;;59.40;39.65;;;29.20;99.90;;;;;;5033510;28;20017;-66
2024/01/23 01:39:51;;;;;;;47.85;35.22;;;29.30;99.90;;;;;;5033377;28;20074;-67
2024/01/23 01:42:18;;;;;;;50.65;36.53;;;29.30;99.90;;;;;;5033691;28;20025;-67
2024/01/23 01:44:45;;;;;;;58.25;42.50;;;29.30;99.90;;;;;;5049421;28;20512;-66
2024/01/23 01:47:11;;;;;;;57.10;40.03;;;29.30;99.90;;;;;;5051342;28;20060;-66
2024/01/23 01:49:38;;;;;;;54.33;38.53;;;29.30;99.90;;;;;;5033236;28;20450;-67
2024/01/23 01:52:05;;;;;;;58.75;43.38;;;29.40;99.90;;;;;;5052819;28;20056;-67
2024/01/23 01:54:32;;;;;;;60.72;44.35;;;29.40;99.90;;;;;;5044307;28;20021;-66
2024/01/23 01:57:00;;;;;;;61.78;45.42;;;29.40;99.90;;;;;;5053378;28;20474;-66
2024/01/23 01:59:27;;;;;;;62.15;49.50;;;29.50;99.90;;;;;;5054431;28;20029;-69
2024/01/23 02:01:54;;;;;;;65.50;50.33;;;29.50;99.90;;;;;;5057334;28;20029;-66
2024/01/23 02:04:21;;;;;;;114.45;86.43;;;29.60;99.90;;;;;;5057317;28;20036;-66
2024/01/23 02:06:48;;;;;;;81.15;55.70;;;29.60;99.90;;;;;;5057125;28;20037;-66
2024/01/23 02:09:14;;;;;;;77.70;54.95;;;29.80;99.90;;;;;;5057387;28;20078;-67
2024/01/23 02:12:01;;;;;;;126.18;90.70;;;29.90;99.90;;;;;;5057095;28;20026;-67
2024/01/23 02:14:28;;;;;;;77.57;56.40;;;29.80;99.90;;;;;;5057127;28;20075;-67
2024/01/23 02:16:54;;;;;;;69.85;53.28;;;29.80;99.90;;;;;;5057144;28;20120;-67
2024/01/23 02:19:21;;;;;;;68.28;49.25;;;29.80;99.90;;;;;;5057048;28;20474;-66
2024/01/23 02:21:48;;;;;;;65.95;49.30;;;29.90;99.90;;;;;;5056838;28;20040;-67
2024/01/23 02:24:14;;;;;;;57.97;44.90;;;30.10;99.90;;;;;;5057030;28;20443;-66
2024/01/23 02:26:41;;;;;;;66.13;47.67;;;30.10;99.90;;;;;;5056497;28;20017;-66
2024/01/23 02:29:09;;;;;;;61.22;45.10;;;30.20;99.90;;;;;;5056945;28;20437;-66
2024/01/23 02:31:35;;;;;;;53.90;41.28;;;30.20;99.90;;;;;;5056473;28;20028;-67
2024/01/23 02:34:02;;;;;;;48.72;37.53;;;30.30;99.90;;;;;;5056592;28;20474;-66
2024/01/23 02:36:28;;;;;;;51.25;38.25;;;30.30;99.90;;;;;;5056736;28;20028;-66
2024/01/23 02:38:55;;;;;;;48.90;39.75;;;30.40;99.90;;;;;;5056585;28;20013;-67
2024/01/23 02:41:21;;;;;;;49.65;36.30;;;30.50;99.90;;;;;;5056536;28;20048;-66
2024/01/23 02:43:48;;;;;;;44.58;32.47;;;30.60;99.90;;;;;;5056432;28;20069;-65
2024/01/23 02:46:14;;;;;;;48.20;33.08;;;30.70;99.90;;;;;;5056508;28;20443;-66
2024/01/23 02:48:41;;;;;;;43.53;33.92;;;30.70;99.90;;;;;;5045034;28;20100;-67
2024/01/23 02:51:07;;;;;;;43.97;31.55;;;30.80;99.90;;;;;;5036546;28;20093;-65
2024/01/23 02:53:34;;;;;;;35.03;25.98;;;30.80;99.90;;;;;;5036444;28;20028;-66
2024/01/23 02:56:00;;;;;;;33.50;25.98;;;30.80;99.90;;;;;;5036241;28;20589;-67
2024/01/23 02:58:27;;;;;;;39.97;26.95;;;30.70;99.90;;;;;;5036351;28;20441;-67
2024/01/23 03:00:53;;;;;;;31.75;25.98;;;30.70;99.90;;;;;;5036386;28;20025;-66
2024/01/23 03:03:20;;;;;;;37.08;28.75;;;30.70;99.90;;;;;;5036581;28;20373;-67
2024/01/23 03:05:46;;;;;;;39.08;29.33;;;30.70;99.90;;;;;;5036725;28;20025;-66
2024/01/23 03:08:13;;;;;;;41.50;30.40;;;30.80;99.90;;;;;;5056024;28;20025;-66
2024/01/23 03:10:39;;;;;;;37.45;26.58;;;30.90;99.90;;;;;;5054664;28;20032;-67
2024/01/23 03:13:07;;;;;;;37.97;24.23;;;30.80;99.90;;;;;;5055803;28;20474;-66
2024/01/23 03:15:34;;;;;;;32.42;22.17;;;30.90;99.90;;;;;;5056077;28;20025;-66
2024/01/23 03:18:01;;;;;;;31.92;24.63;;;30.90;99.90;;;;;;5055765;28;20028;-66
2024/01/23 03:20:29;;;;;;;34.67;25.10;;;31.00;99.90;;;;;;5055738;28;20112;-66
2024/01/23 03:22:56;;;;;;;32.17;24.17;;;31.00;99.90;;;;;;5055608;28;20429;-67
2024/01/23 03:25:23;;;;;;;37.35;24.52;;;31.10;99.90;;;;;;5055688;28;20040;-66
2024/01/23 03:27:50;;;;;;;30.60;23.85;;;31.20;99.90;;;;;;5055459;28;20040;-66
2024/01/23 03:30:37;;;;;;;32.15;24.50;;;31.30;99.90;;;;;;5055550;28;20504;-66
2024/01/23 03:33:04;;;;;;;31.23;22.60;;;31.20;99.90;;;;;;5055105;28;20033;-67
2024/01/23 03:35:31;;;;;;;38.63;24.50;;;31.10;99.90;;;;;;5055573;28;20021;-66
2024/01/23 03:37:58;;;;;;;41.75;28.48;;;31.10;99.90;;;;;;5055620;28;20071;-67
2024/01/23 03:40:24;;;;;;;43.65;27.30;;;31.10;99.90;;;;;;5055377;28;20029;-65
2024/01/23 03:42:51;;;;;;;34.05;25.15;;;31.20;99.90;;;;;;5054685;28;20389;-66
2024/01/23 03:45:18;;;;;;;31.15;23.27;;;31.20;99.90;;;;;;5037902;28;20390;-66
2024/01/23 03:47:44;;;;;;;31.08;24.13;;;31.10;99.90;;;;;;5035274;28;20033;-66
2024/01/23 03:50:11;;;;;;;32.70;24.30;;;31.10;99.90;;;;;;5040376;28;20111;-66
2024/01/23 03:52:38;;;;;;;29.95;22.55;;;31.10;99.90;;;;;;5055292;28;20039;-66
2024/01/23 03:55:05;;;;;;;29.50;20.98;;;31.20;99.90;;;;;;5055042;28;20024;-68
2024/01/23 03:57:31;;;;;;;32.40;23.42;;;31.20;99.90;;;;;;5047868;28;20105;-66
2024/01/23 03:59:58;;;;;;;35.67;23.67;;;31.20;99.90;;;;;;5035205;28;20025;-65
2024/01/23 04:02:25;;;;;;;31.77;23.88;;;31.30;99.90;;;;;;5035006;28;20104;-64
2024/01/23 04:04:52;;;;;;;39.30;26.08;;;31.40;99.90;;;;;;5035063;28;20029;-65
2024/01/23 04:07:19;;;;;;;35.75;22.30;;;31.60;99.90;;;;;;5035013;28;20030;-65
2024/01/23 04:09:45;;;;;;;35.13;23.17;;;31.80;99.90;;;;;;5034383;28;20030;-65
2024/01/23 04:12:12;;;;;;;31.35;21.33;;;31.90;99.90;;;;;;5035206;28;20064;-65
2024/01/23 04:14:40;;;;;;;45.17;28.35;;;32.00;99.90;;;;;;5034814;28;20037;-65
2024/01/23 04:17:07;;;;;;;30.23;22.08;;;32.10;99.90;;;;;;5034972;28;20489;-65
2024/01/23 04:19:34;;;;;;;30.67;21.58;;;32.00;99.90;;;;;;5035126;28;20546;-65
2024/01/23 04:22:00;;;;;;;30.10;22.90;;;31.90;99.90;;;;;;5034407;28;20033;-65
2024/01/23 04:24:27;;;;;;;32.88;22.13;;;31.90;99.90;;;;;;5037302;28;20047;-66
2024/01/23 04:26:53;;;;;;;29.88;21.75;;;31.80;99.90;;;;;;5043410;28;20048;-66
2024/01/23 04:29:20;;;;;;;31.55;21.98;;;31.70;99.90;;;;;;5034724;28;20036;-66
2024/01/23 04:31:46;;;;;;;38.95;24.40;;;31.60;99.90;;;;;;5034672;28;20079;-65
2024/01/23 04:34:13;;;;;;;39.88;24.27;;;31.60;99.90;;;;;;5034085;28;20080;-65
2024/01/23 04:36:39;;;;;;;30.67;23.25;;;31.70;99.90;;;;;;5034476;28;20033;-65
2024/01/23 04:39:05;;;;;;;30.02;21.60;;;31.70;99.90;;;;;;5034329;28;20076;-65
2024/01/23 04:41:32;;;;;;;30.77;20.90;;;31.80;99.90;;;;;;5034079;28;20083;-66
2024/01/23 04:43:58;;;;;;;31.88;20.35;;;31.90;99.90;;;;;;5034384;28;20021;-65
2024/01/23 04:46:25;;;;;;;28.48;19.75;;;31.90;99.90;;;;;;5034268;28;20108;-66
2024/01/23 04:48:51;;;;;;;27.80;19.52;;;32.00;99.90;;;;;;5033986;28;20057;-66
2024/01/23 04:51:18;;;;;;;23.67;18.85;;;32.20;99.90;;;;;;5034178;28;20030;-65
2024/01/23 04:53:45;;;;;;;30.80;21.33;;;32.40;99.90;;;;;;5034153;28;20430;-65
2024/01/23 04:56:11;;;;;;;27.50;20.35;;;32.40;99.90;;;;;;5033969;28;20013;-65
2024/01/23 04:58:38;;;;;;;24.98;19.25;;;32.50;99.90;;;;;;5034263;28;20051;-66
2024/01/23 05:01:04;;;;;;;30.00;20.70;;;32.60;99.90;;;;;;5033998;28;20056;-66
2024/01/23 05:03:31;;;;;;;31.60;22.80;;;32.60;99.90;;;;;;5033919;28;20379;-65
2024/01/23 05:05:59;;;;;;;26.85;20.48;;;32.60;99.90;;;;;;5034034;28;20064;-66
2024/01/23 05:08:26;;;;;;;31.00;21.30;;;32.70;99.90;;;;;;5034313;28;20033;-66
2024/01/23 05:10:52;;;;;;;29.35;19.60;;;32.80;99.90;;;;;;5033790;28;20069;-65
2024/01/23 05:13:19;;;;;;;26.13;17.98;;;32.80;99.90;;;;;;5033956;28;20102;-66
2024/01/23 05:15:45;;;;;;;21.13;16.38;;;32.80;99.90;;;;;;5039192;28;20013;-65
2024/01/23 05:18:12;;;;;;;23.23;17.88;;;32.70;99.90;;;;;;5047274;28;20029;-65
2024/01/23 05:20:38;;;;;;;32.55;24.13;;;32.70;99.90;;;;;;5044407;28;20032;-65
2024/01/23 05:23:05;;;;;;;32.80;21.88;;;32.80;99.90;;;;;;5045368;28;20148;-64
2024/01/23 05:25:32;;;;;;;28.10;21.65;;;32.90;99.90;;;;;;5043086;28;20052;-64
2024/01/23 05:27:59;;;;;;;21.98;15.55;;;33.00;99.90;;;;;;5042170;28;20083;-64
2024/01/23 05:30:26;;;;;;;19.13;15.98;;;33.10;99.90;;;;;;5044077;28;20494;-64
2024/01/23 05:32:52;;;;;;;30.17;17.52;;;33.10;99.90;;;;;;5043213;28;20390;-64
2024/01/23 05:35:19;;;;;;;21.60;15.88;;;33.20;99.90;;;;;;5041239;28;20265;-65
2024/01/23 05:37:45;;;;;;;22.20;16.60;;;33.20;99.90;;;;;;5043812;28;20017;-66
2024/01/23 05:40:13;;;;;;;27.05;19.15;;;33.20;99.90;;;;;;5043356;28;20021;-66
2024/01/23 05:42:39;;;;;;;27.67;19.98;;;33.10;99.90;;;;;;5042481;28;20037;-66
2024/01/23 05:45:07;;;;;;;129.07;95.55;;;33.10;99.90;;;;;;5045991;28;20044;-66
2024/01/23 05:47:33;;;;;;;38.58;26.13;;;33.10;99.90;;;;;;5044112;28;20049;-66
2024/01/23 05:50:01;;;;;;;33.08;26.90;;;33.20;99.90;;;;;;5042423;28;20018;-67
2024/01/23 05:52:28;;;;;;;29.23;19.25;;;33.30;99.90;;;;;;5042022;28;20017;-67
2024/01/23 05:54:54;;;;;;;28.25;23.05;;;33.40;99.90;;;;;;5044600;28;20056;-66
2024/01/23 05:57:21;;;;;;;23.63;18.98;;;33.40;99.90;;;;;;5041710;28;20023;-67
2024/01/23 05:59:47;;;;;;;125.78;90.55;;;33.40;99.90;;;;;;5043317;28;20032;-68
2024/01/23 06:02:14;;;;;;;72.97;50.40;;;33.40;99.90;;;;;;5043249;28;20095;-66
2024/01/23 06:04:42;;;;;;;23.90;16.45;;;33.50;99.90;;;;;;5053159;28;20017;-67
2024/01/23 06:07:08;;;;;;;20.75;15.15;;;33.60;99.90;;;;;;5053300;28;20067;-67
2024/01/23 06:09:35;;;;;;;31.02;18.45;;;33.70;99.90;;;;;;5046496;28;20025;-67
2024/01/23 06:12:02;;;;;;;19.48;16.17;;;33.80;99.90;;;;;;5041542;28;20026;-66
2024/01/23 06:14:29;;;;;;;35.20;20.30;;;33.70;99.90;;;;;;5043131;28;20013;-67
2024/01/23 06:16:56;;;;;;;20.48;16.20;;;33.80;99.90;;;;;;5041918;28;20382;-67
2024/01/23 06:19:23;;;;;;;19.52;14.20;;;33.90;99.90;;;;;;5041478;28;20036;-66
2024/01/23 06:21:50;;;;;;;17.13;14.10;;;34.00;99.90;;;;;;5041935;28;20518;-66
2024/01/23 06:24:17;;;;;;;21.08;14.52;;;34.00;99.90;;;;;;5041657;28;20029;-65
2024/01/23 06:26:43;;;;;;;28.88;20.98;;;34.20;99.90;;;;;;5040868;28;20072;-66
2024/01/23 06:29:10;;;;;;;31.20;22.38;;;34.30;99.90;;;;;;5042065;28;20021;-66
2024/01/23 06:31:36;;;;;;;31.02;20.88;;;34.30;99.90;;;;;;5042594;28;20014;-66
2024/01/23 06:34:04;;;;;;;20.52;17.10;;;34.40;99.90;;;;;;5041155;28;20014;-65
2024/01/23 06:36:31;;;;;;;23.60;16.70;;;34.50;99.90;;;;;;5042526;28;20021;-65
2024/01/23 06:38:58;;;;;;;26.27;18.83;;;34.50;99.90;;;;;;5043632;28;20147;-65
2024/01/23 06:41:25;;;;;;;26.50;16.83;;;34.40;99.90;;;;;;5043352;28;20024;-65
2024/01/23 06:43:51;;;;;;;20.25;14.35;;;34.50;99.90;;;;;;5042552;28;20041;-66
2024/01/23 06:46:18;;;;;;;15.20;11.88;;;34.50;99.90;;;;;;5043971;28;20071;-66
2024/01/23 06:48:44;;;;;;;16.67;14.35;;;34.60;99.90;;;;;;5045199;28;20044;-66
2024/01/23 06:51:11;;;;;;;21.38;16.77;;;34.70;99.90;;;;;;5046292;28;20110;-67
2024/01/23 06:53:37;;;;;;;32.33;25.00;;;34.80;99.90;;;;;;5046816;28;20024;-68
2024/01/23 06:56:04;;;;;;;78.93;55.88;;;34.80;99.90;;;;;;5044937;28;20013;-67
2024/01/23 06:58:30;;;;;;;22.35;15.98;;;34.70;99.90;;;;;;5046054;28;20048;-68
2024/01/23 07:00:57;;;;;;;21.35;14.27;;;34.70;99.90;;;;;;5046586;28;20028;-68
2024/01/23 07:03:23;;;;;;;30.50;23.35;;;34.80;99.90;;;;;;5044746;28;20079;-66
2024/01/23 07:05:50;;;;;;;18.58;15.23;;;34.90;99.90;;;;;;5046124;28;20055;-66
2024/01/23 07:08:16;;;;;;;25.58;18.92;;;34.90;99.90;;;;;;5046537;28;20049;-67
2024/01/23 07:10:43;;;;;;;28.80;20.20;;;35.00;99.90;;;;;;5046510;28;20033;-67
2024/01/23 07:13:09;;;;;;;23.48;17.70;;;35.00;99.90;;;;;;5047600;28;20029;-66
2024/01/23 07:15:36;;;;;;;26.75;19.42;;;34.90;99.90;;;;;;5045168;28;20013;-66
2024/01/23 07:18:02;;;;;;;18.50;14.40;;;35.00;99.90;;;;;;5046687;28;20024;-67
2024/01/23 07:20:29;;;;;;;14.43;11.82;;;34.90;99.90;;;;;;5045389;28;20029;-66
2024/01/23 07:22:55;;;;;;;16.88;12.25;;;34.90;99.90;;;;;;5044503;28;20072;-65
2024/01/23 07:25:23;;;;;;;20.63;14.10;;;34.90;99.90;;;;;;5046505;28;20017;-66
2024/01/23 07:27:50;;;;;;;45.92;28.98;;;35.00;99.90;;;;;;5044976;28;20026;-67
2024/01/23 07:30:19;;;;;;;19.10;12.98;;;35.10;99.90;;;;;;5044625;28;20027;-66
2024/01/23 07:32:46;;;;;;;18.77;13.00;;;35.10;99.90;;;;;;5046935;28;20106;-67
2024/01/23 07:35:14;;;;;;;18.73;13.38;;;35.20;99.90;;;;;;5045297;28;20561;-68
2024/01/23 07:37:40;;;;;;;15.38;11.88;;;35.10;99.90;;;;;;5046234;28;20031;-67
2024/01/23 07:40:07;;;;;;;16.77;12.57;;;35.20;99.90;;;;;;5046052;28;20029;-66
2024/01/23 07:42:34;;;;;;;18.13;11.77;;;35.20;99.90;;;;;;5044880;28;20490;-68
2024/01/23 07:45:00;;;;;;;16.80;13.30;;;35.20;99.90;;;;;;5044088;28;20025;-68
2024/01/23 07:47:27;;;;;;;15.30;11.82;;;35.30;99.90;;;;;;5045748;28;20028;-68
2024/01/23 07:49:53;;;;;;;17.05;11.93;;;35.30;99.90;;;;;;5045241;28;20057;-68
2024/01/23 07:52:21;;;;;;;16.63;11.93;;;35.20;99.90;;;;;;5044163;28;20482;-68
2024/01/23 07:54:48;;;;;;;19.67;12.32;;;35.20;99.90;;;;;;5045553;28;20024;-68
2024/01/23 07:57:14;;;;;;;15.45;12.00;;;35.10;99.90;;;;;;5044280;28;20026;-67
2024/01/23 07:59:41;;;;;;;15.85;12.23;;;35.10;99.90;;;;;;5043626;28;20100;-67
2024/01/23 08:02:07;;;;;;;14.43;12.15;;;35.10;99.90;;;;;;5045453;28;20059;-67
2024/01/23 08:04:34;;;;;;;17.30;11.75;;;35.10;99.90;;;;;;5044932;28;20036;-67
2024/01/23 08:07:00;;;;;;;18.10;12.48;;;35.00;99.90;;;;;;5043658;28;20021;-68
2024/01/23 08:09:27;;;;;;;21.42;13.20;;;35.00;99.90;;;;;;5045271;28;20089;-67
2024/01/23 08:11:53;;;;;;;19.85;12.52;;;35.10;99.90;;;;;;5045903;28;20021;-68
2024/01/23 08:14:20;;;;;;;15.60;11.85;;;35.30;99.90;;;;;;5046642;28;20024;-66
2024/01/23 08:16:47;;;;;;;17.55;11.18;;;35.20;99.90;;;;;;5046193;28;20021;-67
2024/01/23 08:19:13;;;;;;;19.40;12.25;;;35.20;99.90;;;;;;5049123;28;20549;-66
2024/01/23 08:21:40;;;;;;;16.52;11.73;;;35.20;99.90;;;;;;5055003;28;20029;-67
2024/01/23 08:24:07;;;;;;;14.00;11.02;;;35.20;99.90;;;;;;5054664;28;20056;-66
2024/01/23 08:26:33;;;;;;;15.40;12.10;;;35.10;99.90;;;;;;5054830;28;20067;-66
2024/01/23 08:29:00;;;;;;;20.15;15.98;;;35.20;99.90;;;;;;5054650;28;20029;-66
2024/01/23 08:31:27;;;;;;;21.92;15.43;;;35.20;99.90;;;;;;5054664;28;20029;-67
2024/01/23 08:33:54;;;;;;;24.45;18.00;;;35.20;99.90;;;;;;5054488;28;20036;-66
2024/01/23 08:36:20;;;;;;;23.45;16.15;;;35.00;99.90;;;;;;5054220;28;20112;-66
2024/01/23 08:38:47;;;;;;;22.60;17.33;;;34.90;99.90;;;;;;5043570;28;20042;-67
2024/01/23 08:41:13;;;;;;;23.45;17.50;;;34.90;99.90;;;;;;5043750;28;20364;-68
2024/01/23 08:43:40;;;;;;;24.25;17.88;;;34.80;99.90;;;;;;5044375;28;20102;-66
2024/01/23 08:46:06;;;;;;;34.97;25.50;;;34.80;99.90;;;;;;5046624;28;20516;-65
2024/01/23 08:48:33;;;;;;;25.95;19.80;;;34.70;99.90;;;;;;5050159;28;20071;-65
2024/01/23 08:50:59;;;;;;;23.83;18.13;;;34.70;99.90;;;;;;5046500;28;20025;-66
2024/01/23 08:53:26;;;;;;;27.88;20.55;;;34.80;99.90;;;;;;5047392;28;20017;-66
2024/01/23 08:55:54;;;;;;;31.40;22.58;;;34.80;99.90;;;;;;5046878;28;20025;-67
2024/01/23 08:58:21;;;;;;;24.33;19.77;;;34.80;99.90;;;;;;5045611;28;20035;-65
2024/01/23 09:00:48;;;;;;;25.70;19.38;;;34.60;99.90;;;;;;5045127;28;20029;-64
2024/01/23 09:03:15;;;;;;;28.92;20.65;;;34.60;99.90;;;;;;5045383;28;20501;-66
2024/01/23 09:05:41;;;;;;;31.75;20.95;;;34.40;99.90;;;;;;5045935;28;20029;-67
2024/01/23 09:08:08;;;;;;;36.20;23.25;;;34.30;99.90;;;;;;5044550;28;20088;-67
2024/01/23 09:10:34;;;;;;;37.45;24.25;;;34.30;99.90;;;;;;5050610;28;20021;-68
2024/01/23 09:13:01;;;;;;;28.52;21.63;;;34.30;99.90;;;;;;5050130;28;20027;-68
2024/01/23 09:15:27;;;;;;;28.85;20.17;;;34.10;99.90;;;;;;5050255;28;20049;-68
2024/01/23 09:17:54;;;;;;;24.38;18.95;;;33.90;99.90;;;;;;5051885;28;20017;-66
2024/01/23 09:20:21;;;;;;;23.40;17.30;;;33.80;99.90;;;;;;5051472;28;20017;-65
2024/01/23 09:22:49;;;;;;;23.73;17.42;;;33.80;99.90;;;;;;5051606;28;20083;-66
2024/01/23 09:25:15;;;;;;;44.58;26.48;;;33.60;99.90;;;;;;5042320;28;20029;-66
2024/01/23 09:27:42;;;;;;;46.58;33.03;;;33.30;99.90;;;;;;5044587;28;20410;-67
2024/01/23 09:30:09;;;;;;;280.35;203.70;;;33.10;99.90;;;;;;5046748;28;20116;-65
2024/01/23 09:32:35;;;;;;;172.65;111.25;;;32.80;99.90;;;;;;5043545;28;20029;-69
2024/01/23 09:35:02;;;;;;;83.10;47.47;;;32.80;99.90;;;;;;5041393;28;20020;-67
2024/01/23 09:37:29;;;;;;;39.67;27.50;;;32.70;99.90;;;;;;5041831;28;20072;-68
2024/01/23 09:39:55;;;;;;;74.88;45.33;;;32.40;99.90;;;;;;5045325;28;20086;-67
2024/01/23 09:42:23;;;;;;;24.60;14.63;;;32.30;99.90;;;;;;5044269;28;20024;-68
2024/01/23 09:44:55;;;;;;;39.65;26.35;;;32.10;99.90;;;;;;5048589;28;20056;-66
2024/01/23 09:47:24;;;;;;;76.82;45.78;;;31.70;99.90;;;;;;5043122;28;20021;-67
2024/01/23 09:49:52;;;;;;;52.95;32.55;;;31.50;99.90;;;;;;5041046;28;20031;-68
2024/01/23 09:52:20;;;;;;;25.90;15.93;;;31.30;99.90;;;;;;5040979;28;20032;-66
2024/01/23 09:54:47;;;;;;;16.77;8.48;;;31.20;99.90;;;;;;5041743;28;20021;-65
2024/01/23 09:57:14;;;;;;;21.00;16.20;;;30.80;99.90;;;;;;5044486;28;20463;-62
2024/01/23 09:59:41;;;;;;;17.05;8.95;;;30.60;99.90;;;;;;5041119;28;20035;-64
2024/01/23 10:02:10;;;;;;;13.35;9.13;;;30.50;99.90;;;;;;5041328;28;20060;-66
2024/01/23 10:04:36;;;;;;;13.07;7.63;;;30.40;99.90;;;;;;5040709;28;20391;-66
2024/01/23 10:07:08;;;;;;;14.57;9.98;;;30.40;99.90;;;;;;5041154;28;20072;-65
2024/01/23 10:09:35;;;;;;;17.73;13.70;;;30.30;99.90;;;;;;5047878;28;20026;-64
2024/01/23 10:12:01;;;;;;;27.90;13.95;;;30.20;99.90;;;;;;5045359;28;20036;-68
2024/01/23 10:14:28;;;;;;;28.65;19.63;;;30.20;99.90;;;;;;5043809;28;20025;-67
2024/01/23 10:16:55;;;;;;;15.48;10.52;;;30.20;99.90;;;;;;5047003;28;20033;-66
2024/01/23 10:19:25;;;;;;;13.45;8.73;;;30.30;99.90;;;;;;5044089;28;20021;-68
2024/01/23 10:21:54;;;;;;;12.60;9.07;;;30.30;99.90;;;;;;5047089;28;20386;-67
2024/01/23 10:24:22;;;;;;;28.40;18.77;;;30.30;99.90;;;;;;5047638;28;20044;-68
2024/01/23 10:26:48;;;;;;;15.98;12.43;;;30.20;99.90;;;;;;5047945;28;20028;-65
2024/01/23 10:29:15;;;;;;;18.35;10.68;;;30.20;99.90;;;;;;5047279;28;20021;-66
2024/01/23 10:31:42;;;;;;;13.20;9.05;;;30.40;99.90;;;;;;5047697;28;20021;-66
2024/01/23 10:34:12;;;;;;;13.05;9.23;;;30.40;99.90;;;;;;5047507;28;20104;-66
2024/01/23 10:36:41;;;;;;;13.40;8.73;;;30.50;99.90;;;;;;5045946;28;20018;-68
2024/01/23 10:39:08;;;;;;;12.32;9.15;;;30.50;99.90;;;;;;5046286;28;20426;-66
2024/01/23 10:41:35;;;;;;;22.75;15.07;;;30.50;99.90;;;;;;5046380;28;20029;-69
2024/01/23 10:44:03;;;;;;;19.98;15.80;;;30.40;99.90;;;;;;5047100;28;20104;-68
2024/01/23 10:46:30;;;;;;;58.72;36.35;;;30.40;99.90;;;;;;5050915;28;20025;-67
2024/01/23 10:48:57;;;;;;;87.78;57.95;;;30.40;99.90;;;;;;5048986;28;20021;-66
2024/01/23 10:51:30;;;;;;;17.85;10.65;;;30.40;99.90;;;;;;5050698;28;20013;-67
2024/01/23 10:54:25;;;;;;;17.13;9.52;;;30.40;99.90;;;;;;5043373;28;20045;-67
2024/01/23 10:56:56;;;;;;;15.45;10.13;;;30.20;99.90;;;;;;5041172;28;20024;-65
2024/01/23 10:59:27;;;;;;;17.03;9.83;;;30.20;99.90;;;;;;5049378;28;20056;-66
2024/01/23 11:02:05;;;;;;;14.60;10.10;;;30.10;99.90;;;;;;5050061;28;20022;-65
2024/01/23 11:04:32;;;;;;;13.95;9.45;;;29.90;99.90;;;;;;5050326;28;20128;-67
2024/01/23 11:07:02;;;;;;;16.63;10.90;;;29.90;99.90;;;;;;5049518;28;20048;-67
2024/01/23 11:09:55;;;;;;;17.38;11.68;;;29.90;99.90;;;;;;5048855;28;20026;-65
2024/01/23 11:12:30;;;;;;;16.00;11.35;;;29.90;99.90;;;;;;5031723;28;20041;-65
2024/01/23 11:15:01;;;;;;;16.25;12.02;;;29.90;99.90;;;;;;5046714;28;20032;-66
2024/01/23 11:17:32;;;;;;;16.10;11.50;;;29.80;99.90;;;;;;5051570;28;20077;-65
2024/01/23 11:20:14;;;;;;;18.92;11.35;;;29.80;99.90;;;;;;5050705;28;20295;-66
2024/01/23 11:22:44;;;;;;;17.60;12.07;;;29.80;99.90;;;;;;5045334;28;20041;-65
2024/01/23 11:25:14;;;;;;;17.45;11.30;;;29.80;99.90;;;;;;5044314;28;20044;-65
2024/01/23 11:27:41;;;;;;;13.75;10.25;;;29.80;99.90;;;;;;5043468;28;20171;-66
2024/01/23 11:30:13;;;;;;;18.30;13.02;;;29.80;99.90;;;;;;5049591;28;20021;-68
2024/01/23 11:32:40;;;;;;;119.80;84.18;;;29.80;99.90;;;;;;5050467;28;20036;-68
2024/01/23 11:35:11;;;;;;;56.15;43.90;;;29.80;99.90;;;;;;5051515;28;20397;-68
2024/01/23 11:37:41;;;;;;;42.80;30.83;;;29.80;99.90;;;;;;5051758;28;20036;-66
2024/01/23 11:40:24;;;;;;;43.50;33.05;;;29.80;99.90;;;;;;5050071;28;20036;-66
2024/01/23 11:42:51;;;;;;;19.27;14.00;;;29.80;99.90;;;;;;5047188;28;20498;-67
2024/01/23 11:45:27;;;;;;;21.77;12.65;;;29.80;99.90;;;;;;5048300;28;20482;-67
2024/01/23 11:47:55;;;;;;;24.58;18.10;;;29.80;99.90;;;;;;5051530;28;20039;-69
2024/01/23 11:50:23;;;;;;;43.70;29.75;;;29.80;99.90;;;;;;5051319;28;20031;-69
2024/01/23 11:52:54;;;;;;;58.15;39.08;;;29.70;99.90;;;;;;5046411;28;20037;-68
2024/01/23 11:55:21;;;;;;;77.55;49.97;;;29.80;99.90;;;;;;5043945;28;20112;-69
2024/01/23 11:57:49;;;;;;;85.68;62.08;;;29.80;99.90;;;;;;5050664;28;20020;-69
2024/01/23 12:00:18;;;;;;;76.22;51.83;;;29.80;99.90;;;;;;5051095;28;20482;-69
2024/01/23 12:02:45;;;;;;;162.88;101.25;;;29.80;99.90;;;;;;5043327;28;20033;-69
2024/01/23 12:05:12;;;;;;;70.75;44.75;;;29.80;99.90;;;;;;5044533;28;20029;-69
2024/01/23 12:07:40;;;;;;;45.22;26.88;;;29.70;99.90;;;;;;5045111;28;20037;-69
2024/01/23 12:10:09;;;;;;;62.85;51.55;;;29.70;99.90;;;;;;5047588;28;20033;-67
2024/01/23 12:12:36;;;;;;;42.63;31.25;;;29.60;99.90;;;;;;5050263;28;20021;-67
2024/01/23 12:15:04;;;;;;;55.33;38.53;;;29.50;99.90;;;;;;5045551;28;20022;-67
2024/01/23 12:17:33;;;;;;;95.97;63.47;;;29.40;99.90;;;;;;5048084;28;20025;-68
2024/01/23 12:20:09;;;;;;;65.40;46.67;;;29.40;99.90;;;;;;5047615;28;20164;-69
2024/01/23 12:22:37;;;;;;;61.75;43.53;;;29.40;99.90;;;;;;5048848;28;20486;-68
2024/01/23 12:25:06;;;;;;;32.80;22.02;;;29.30;99.90;;;;;;5047317;28;20108;-67
2024/01/23 12:27:33;;;;;;;26.15;19.10;;;29.40;99.90;;;;;;5044094;28;20032;-67
2024/01/23 12:30:00;;;;;;;26.75;16.02;;;29.40;99.90;;;;;;5045744;28;20339;-68